Time;durP1;ratioP1;P1;durP2;ratioP2;P2;SDS_P1;SDS_P2;PMS_P1;PMS_P2;Temp;Humidity;BMP_temperature;BMP_pressure;BME280_temperature;BME280_humidity;BME280_pressure;Samples;Min_cycle;Max_cycle;Signal;HPM_P1;HPM_P2
2024/04/02 00:00:33;;;;;;;5.95;5.20;;;;;;;;;;4584809;31;20955;-77
2024/04/02 00:03:00;;;;;;;5.57;5.25;;;;;;;;;;4568465;31;20267;-77
2024/04/02 00:05:26;;;;;;;5.95;5.60;;;;;;;;;;4598556;31;20210;-78
2024/04/02 00:07:51;;;;;;;5.27;4.97;;;;;;;;;;4619693;31;20632;-78
2024/04/02 00:10:17;;;;;;;5.63;5.10;;;;;;;;;;4587779;31;20440;-77
2024/04/02 00:12:44;;;;;;;5.82;5.32;;;;;;;;;;4600973;31;20454;-77
2024/04/02 00:15:10;;;;;;;5.82;5.40;;;;;;;;;;4599118;31;20769;-77
2024/04/02 00:17:37;;;;;;;5.63;5.33;;;;;;;;;;4629395;31;20233;-77
2024/04/02 00:20:06;;;;;;;5.70;5.30;;;;;;;;;;4585831;31;20781;-77
2024/04/02 00:22:32;;;;;;;5.80;5.50;;;;;;;;;;4585566;31;20204;-77
2024/04/02 00:24:58;;;;;;;5.40;5.20;;;;;;;;;;4598741;31;20285;-77
2024/04/02 00:27:27;;;;;;;5.63;5.20;;;;;;;;;;4589039;31;20482;-77
2024/04/02 00:29:53;;;;;;;7.20;5.00;;;;;;;;;;4591078;31;20442;-77
2024/04/02 00:32:19;;;;;;;6.07;5.70;;;;;;;;;;4584698;31;20360;-78
2024/04/02 00:34:45;;;;;;;6.93;6.43;;;;;;;;;;4584582;31;20431;-77
2024/04/02 00:37:11;;;;;;;6.40;5.90;;;;;;;;;;4594440;31;20537;-77
2024/04/02 00:39:37;;;;;;;6.70;6.10;;;;;;;;;;4584348;31;20454;-77
2024/04/02 00:42:04;;;;;;;6.30;5.80;;;;;;;;;;4597580;31;20218;-77
2024/04/02 00:44:30;;;;;;;6.10;5.80;;;;;;;;;;4568743;31;20435;-77
2024/04/02 00:46:57;;;;;;;6.20;5.60;;;;;;;;;;4563212;31;20563;-77
2024/04/02 00:49:23;;;;;;;6.55;6.15;;;;;;;;;;4544137;31;20208;-77
2024/04/02 00:51:49;;;;;;;6.68;6.03;;;;;;;;;;4552454;31;20236;-78
2024/04/02 00:54:16;;;;;;;8.20;6.30;;;;;;;;;;4568970;31;20209;-77
2024/04/02 00:56:42;;;;;;;6.20;5.72;;;;;;;;;;4550607;31;20217;-77
2024/04/02 00:59:10;;;;;;;9.18;6.07;;;;;;;;;;4537003;31;20219;-77
2024/04/02 01:01:36;;;;;;;6.15;5.50;;;;;;;;;;4504485;31;20217;-78
2024/04/02 01:04:02;;;;;;;5.50;5.20;;;;;;;;;;4559420;31;20309;-77
2024/04/02 01:06:28;;;;;;;6.20;5.57;;;;;;;;;;4564827;31;20479;-78
2024/04/02 01:08:54;;;;;;;5.43;5.00;;;;;;;;;;4578114;31;20223;-78
2024/04/02 01:11:20;;;;;;;5.78;5.38;;;;;;;;;;4564480;31;20341;-78
2024/04/02 01:13:47;;;;;;;5.75;5.45;;;;;;;;;;4552205;31;20204;-78
2024/04/02 01:16:17;;;;;;;7.85;5.90;;;;;;;;;;4568958;31;20208;-78
2024/04/02 01:18:45;;;;;;;5.55;5.30;;;;;;;;;;4568231;31;20207;-78
2024/04/02 01:21:11;;;;;;;6.07;5.68;;;;;;;;;;4581779;31;20590;-78
2024/04/02 01:23:37;;;;;;;6.03;5.53;;;;;;;;;;4597697;31;20261;-78
2024/04/02 01:26:03;;;;;;;6.05;5.60;;;;;;;;;;4594231;31;20282;-78
2024/04/02 01:28:29;;;;;;;6.35;5.82;;;;;;;;;;4600821;31;20199;-78
2024/04/02 01:30:55;;;;;;;6.22;5.82;;;;;;;;;;4602578;31;20254;-78
2024/04/02 01:33:21;;;;;;;6.57;6.13;;;;;;;;;;4586143;31;20237;-78
2024/04/02 01:35:47;;;;;;;5.37;5.17;;;;;;;;;;4587902;31;20245;-78
2024/04/02 01:38:13;;;;;;;5.83;5.53;;;;;;;;;;4574967;31;20453;-78
2024/04/02 01:40:39;;;;;;;6.40;5.80;;;;;;;;;;4566788;31;20452;-78
2024/04/02 01:43:06;;;;;;;6.37;5.97;;;;;;;;;;4547915;31;21015;-78
2024/04/02 01:45:32;;;;;;;6.82;6.20;;;;;;;;;;4545328;31;20461;-78
2024/04/02 01:47:59;;;;;;;5.93;5.47;;;;;;;;;;4521753;31;20206;-77
2024/04/02 01:50:25;;;;;;;6.55;5.70;;;;;;;;;;4519032;31;20237;-78
2024/04/02 01:52:51;;;;;;;10.75;6.07;;;;;;;;;;4531308;31;20216;-78
2024/04/02 01:55:17;;;;;;;8.70;5.95;;;;;;;;;;4539117;31;20211;-78
2024/04/02 01:57:43;;;;;;;6.53;5.90;;;;;;;;;;4550267;31;20624;-78
2024/04/02 02:00:09;;;;;;;6.32;5.80;;;;;;;;;;4523162;31;20964;-78
2024/04/02 02:02:35;;;;;;;5.95;5.65;;;;;;;;;;4525980;31;20262;-78
2024/04/02 02:05:01;;;;;;;6.00;5.60;;;;;;;;;;4511342;31;20214;-78
2024/04/02 02:07:27;;;;;;;6.07;5.60;;;;;;;;;;4518860;31;20441;-78
2024/04/02 02:09:53;;;;;;;6.47;5.80;;;;;;;;;;4550531;31;20212;-78
2024/04/02 02:12:19;;;;;;;6.50;6.10;;;;;;;;;;4539150;31;20569;-77
2024/04/02 02:14:45;;;;;;;5.90;5.60;;;;;;;;;;4563399;31;20865;-78
2024/04/02 02:17:11;;;;;;;5.80;5.50;;;;;;;;;;4564170;31;20492;-78
2024/04/02 02:19:37;;;;;;;8.48;5.70;;;;;;;;;;4539291;31;20965;-78
2024/04/02 02:22:03;;;;;;;6.10;5.80;;;;;;;;;;4541040;31;20244;-78
2024/04/02 02:24:29;;;;;;;6.10;5.70;;;;;;;;;;4558167;31;20579;-78
2024/04/02 02:26:56;;;;;;;6.03;5.63;;;;;;;;;;4572028;31;20215;-78
2024/04/02 02:29:25;;;;;;;6.00;5.60;;;;;;;;;;4547959;31;20201;-78
2024/04/02 02:31:54;;;;;;;7.97;5.70;;;;;;;;;;4552914;31;20272;-77
2024/04/02 02:34:20;;;;;;;6.10;5.65;;;;;;;;;;4522764;31;20198;-77
2024/04/02 02:36:46;;;;;;;5.93;5.47;;;;;;;;;;4538089;31;20255;-77
2024/04/02 02:39:12;;;;;;;6.13;5.78;;;;;;;;;;4549946;31;20232;-78
2024/04/02 02:41:38;;;;;;;6.33;5.87;;;;;;;;;;4574053;31;20293;-77
2024/04/02 02:44:04;;;;;;;9.32;6.20;;;;;;;;;;4580620;31;20436;-78
2024/04/02 02:46:31;;;;;;;6.10;5.70;;;;;;;;;;4531629;31;20216;-78
2024/04/02 02:48:57;;;;;;;6.25;5.75;;;;;;;;;;4563712;31;20565;-77
2024/04/02 02:51:23;;;;;;;6.03;5.72;;;;;;;;;;4540301;31;20623;-78
2024/04/02 02:53:49;;;;;;;6.20;5.63;;;;;;;;;;4525269;31;20250;-77
2024/04/02 02:56:15;;;;;;;6.88;6.47;;;;;;;;;;4567345;31;20428;-77
2024/04/02 02:58:42;;;;;;;6.77;6.37;;;;;;;;;;4552402;31;20729;-77
2024/04/02 03:01:08;;;;;;;6.78;6.22;;;;;;;;;;4567631;31;20460;-78
2024/04/02 03:03:34;;;;;;;6.75;6.45;;;;;;;;;;4554956;31;20211;-77
2024/04/02 03:06:00;;;;;;;6.80;6.30;;;;;;;;;;4567437;31;20222;-78
2024/04/02 03:08:26;;;;;;;6.90;6.40;;;;;;;;;;4534108;31;20465;-78
2024/04/02 03:10:55;;;;;;;7.05;6.55;;;;;;;;;;4534875;31;20237;-78
2024/04/02 03:13:21;;;;;;;6.70;6.30;;;;;;;;;;4534997;31;20201;-77
2024/04/02 03:15:47;;;;;;;6.67;6.33;;;;;;;;;;4522318;31;20224;-77
2024/04/02 03:18:13;;;;;;;6.50;6.20;;;;;;;;;;4518084;31;20782;-77
2024/04/02 03:20:38;;;;;;;7.10;6.40;;;;;;;;;;4474401;31;20277;-77
2024/04/02 03:23:05;;;;;;;8.03;7.43;;;;;;;;;;4498491;31;20933;-77
2024/04/02 03:25:31;;;;;;;6.30;6.00;;;;;;;;;;4518613;31;20431;-77
2024/04/02 03:27:57;;;;;;;7.37;6.70;;;;;;;;;;4510281;31;20307;-78
2024/04/02 03:30:23;;;;;;;6.60;6.20;;;;;;;;;;4534078;31;20994;-78
2024/04/02 03:32:49;;;;;;;8.83;6.50;;;;;;;;;;4517810;31;20550;-77
2024/04/02 03:35:15;;;;;;;7.10;6.60;;;;;;;;;;4534414;31;20535;-78
2024/04/02 03:37:41;;;;;;;7.17;6.33;;;;;;;;;;4557343;31;20529;-77
2024/04/02 03:40:07;;;;;;;6.72;6.43;;;;;;;;;;4566542;31;20804;-78
2024/04/02 03:42:33;;;;;;;6.32;6.03;;;;;;;;;;4551218;31;20552;-78
2024/04/02 03:44:59;;;;;;;6.20;5.90;;;;;;;;;;4541755;31;20215;-77
2024/04/02 03:47:26;;;;;;;6.93;6.40;;;;;;;;;;4554966;31;20532;-77
2024/04/02 03:49:52;;;;;;;6.65;6.15;;;;;;;;;;4554736;31;20425;-77
2024/04/02 03:52:18;;;;;;;6.50;6.20;;;;;;;;;;4579467;31;20252;-77
2024/04/02 03:54:44;;;;;;;6.33;5.90;;;;;;;;;;4566277;31;20211;-77
2024/04/02 03:57:10;;;;;;;6.53;6.23;;;;;;;;;;4582776;31;20431;-78
2024/04/02 03:59:36;;;;;;;6.50;5.93;;;;;;;;;;4586951;31;20436;-78
2024/04/02 04:02:03;;;;;;;6.30;6.00;;;;;;;;;;4608094;31;20487;-78
2024/04/02 04:04:29;;;;;;;6.15;5.88;;;;;;;;;;4632447;31;20722;-78
2024/04/02 04:06:55;;;;;;;7.97;6.27;;;;;;;;;;4604591;31;20244;-78
2024/04/02 04:09:21;;;;;;;7.00;6.60;;;;;;;;;;4620524;31;20432;-77
2024/04/02 04:11:47;;;;;;;6.50;6.20;;;;;;;;;;4636392;30;20344;-77
2024/04/02 04:14:13;;;;;;;7.45;6.95;;;;;;;;;;4632829;30;20197;-77
2024/04/02 04:16:39;;;;;;;7.60;7.20;;;;;;;;;;4607287;31;20210;-78
2024/04/02 04:19:05;;;;;;;8.20;7.60;;;;;;;;;;4596334;31;20583;-78
2024/04/02 04:21:31;;;;;;;8.00;7.20;;;;;;;;;;4615210;31;20439;-78
2024/04/02 04:23:58;;;;;;;7.72;7.30;;;;;;;;;;4644246;30;21004;-77
2024/04/02 04:26:24;;;;;;;8.13;7.30;;;;;;;;;;4579231;31;20215;-78
2024/04/02 04:28:50;;;;;;;8.20;7.80;;;;;;;;;;4620722;31;20206;-78
2024/04/02 04:31:16;;;;;;;8.23;7.77;;;;;;;;;;4621727;31;20244;-78
2024/04/02 04:33:42;;;;;;;8.33;7.73;;;;;;;;;;4586190;31;20443;-77
2024/04/02 04:36:08;;;;;;;8.37;7.80;;;;;;;;;;4597323;31;20524;-78
2024/04/02 04:38:35;;;;;;;7.73;7.43;;;;;;;;;;4591075;31;20795;-78
2024/04/02 04:41:01;;;;;;;7.70;7.20;;;;;;;;;;4603670;31;20794;-78
2024/04/02 04:43:27;;;;;;;8.70;7.88;;;;;;;;;;4615915;31;20202;-78
2024/04/02 04:45:53;;;;;;;8.60;8.07;;;;;;;;;;4603074;31;20265;-77
2024/04/02 04:48:19;;;;;;;8.30;7.87;;;;;;;;;;4614060;31;20430;-77
2024/04/02 04:50:57;;;;;;;7.70;7.40;;;;;;;;;;4578808;31;20495;-77
2024/04/02 04:53:23;;;;;;;7.90;7.43;;;;;;;;;;4599353;31;20332;-78
2024/04/02 04:55:49;;;;;;;8.50;8.00;;;;;;;;;;4585058;31;20211;-77
2024/04/02 04:58:15;;;;;;;7.95;7.40;;;;;;;;;;4585525;31;20207;-78
2024/04/02 05:00:41;;;;;;;8.25;7.50;;;;;;;;;;4563197;31;20203;-78
2024/04/02 05:03:07;;;;;;;8.10;7.80;;;;;;;;;;4585270;31;20218;-78
2024/04/02 05:05:33;;;;;;;7.97;7.57;;;;;;;;;;4586260;31;20431;-78
2024/04/02 05:08:14;;;;;;;8.20;7.60;;;;;;;;;;4615403;31;20594;-78
2024/04/02 05:10:40;;;;;;;8.10;7.60;;;;;;;;;;4633613;31;21061;-78
2024/04/02 05:13:06;;;;;;;9.83;8.87;;;;;;;;;;4635695;31;20208;-78
2024/04/02 05:15:33;;;;;;;8.95;7.97;;;;;;;;;;4621554;30;20513;-78
2024/04/02 05:17:59;;;;;;;8.57;7.93;;;;;;;;;;4619592;31;20213;-78
2024/04/02 05:20:25;;;;;;;7.93;7.53;;;;;;;;;;4636346;30;20193;-78
2024/04/02 05:22:52;;;;;;;8.27;7.70;;;;;;;;;;4634397;31;20727;-78
2024/04/02 05:25:18;;;;;;;8.70;7.90;;;;;;;;;;4601675;31;20218;-77
2024/04/02 05:27:44;;;;;;;9.30;8.50;;;;;;;;;;4530584;31;20677;-77
2024/04/02 05:30:12;;;;;;;8.48;7.82;;;;;;;;;;4552022;31;20466;-77
2024/04/02 05:32:38;;;;;;;8.32;7.70;;;;;;;;;;4568283;31;20247;-78
2024/04/02 05:35:04;;;;;;;8.10;7.60;;;;;;;;;;4571612;31;20211;-77
2024/04/02 05:37:30;;;;;;;8.02;7.45;;;;;;;;;;4530764;31;20217;-78
2024/04/02 05:39:56;;;;;;;7.83;7.33;;;;;;;;;;4552258;31;20207;-77
2024/04/02 05:42:22;;;;;;;8.02;7.43;;;;;;;;;;4528527;31;20530;-78
2024/04/02 05:44:48;;;;;;;8.05;7.45;;;;;;;;;;4537706;31;20243;-78
2024/04/02 05:47:14;;;;;;;8.10;7.60;;;;;;;;;;4572676;31;20212;-78
2024/04/02 05:49:40;;;;;;;7.72;7.22;;;;;;;;;;4568643;31;20222;-77
2024/04/02 05:52:06;;;;;;;11.03;7.20;;;;;;;;;;4526012;31;20728;-77
2024/04/02 05:54:32;;;;;;;8.40;7.90;;;;;;;;;;4491587;31;20429;-77
2024/04/02 05:56:59;;;;;;;9.32;8.50;;;;;;;;;;4532030;31;20211;-78
2024/04/02 05:59:25;;;;;;;8.45;7.57;;;;;;;;;;4535935;31;20281;-78
2024/04/02 06:01:54;;;;;;;9.80;7.40;;;;;;;;;;4562632;31;20212;-77
2024/04/02 06:04:20;;;;;;;8.75;8.02;;;;;;;;;;4567734;31;20471;-78
2024/04/02 06:06:49;;;;;;;8.90;7.70;;;;;;;;;;4560078;31;20200;-78
2024/04/02 06:09:15;;;;;;;8.15;7.65;;;;;;;;;;4572205;31;20685;-77
2024/04/02 06:11:41;;;;;;;8.10;7.53;;;;;;;;;;4626874;31;20263;-78
2024/04/02 06:14:07;;;;;;;9.10;8.00;;;;;;;;;;4639067;30;20429;-77
2024/04/02 06:16:33;;;;;;;7.93;7.13;;;;;;;;;;4626790;30;20373;-78
2024/04/02 06:18:59;;;;;;;9.50;8.07;;;;;;;;;;4592058;31;20721;-78
2024/04/02 06:21:25;;;;;;;7.50;7.00;;;;;;;;;;4621274;31;20507;-77
2024/04/02 06:23:51;;;;;;;9.40;7.60;;;;;;;;;;4637692;30;20264;-78
2024/04/02 06:26:18;;;;;;;14.97;7.73;;;;;;;;;;4632111;31;20433;-78
2024/04/02 06:28:44;;;;;;;9.15;7.25;;;;;;;;;;4621343;31;20527;-78
2024/04/02 06:31:10;;;;;;;10.80;6.83;;;;;;;;;;4607746;30;20336;-78
2024/04/02 06:33:36;;;;;;;9.85;7.68;;;;;;;;;;4601857;31;21003;-77
2024/04/02 06:36:03;;;;;;;9.45;7.50;;;;;;;;;;4605342;31;20206;-77
2024/04/02 06:38:29;;;;;;;14.52;8.30;;;;;;;;;;4601383;31;20209;-77
2024/04/02 06:40:55;;;;;;;7.53;6.83;;;;;;;;;;4588327;31;20211;-77
2024/04/02 06:43:20;;;;;;;7.40;6.90;;;;;;;;;;4565754;31;20436;-78
2024/04/02 06:45:53;;;;;;;10.70;6.40;;;;;;;;;;4617762;31;20437;-77
2024/04/02 06:48:19;;;;;;;6.47;5.75;;;;;;;;;;4578407;31;20433;-77
2024/04/02 06:50:45;;;;;;;7.70;7.00;;;;;;;;;;4557989;31;20212;-77
2024/04/02 06:53:11;;;;;;;11.97;6.97;;;;;;;;;;4561768;31;20467;-77
2024/04/02 06:55:37;;;;;;;13.17;7.30;;;;;;;;;;4600705;31;20482;-78
2024/04/02 06:58:04;;;;;;;7.83;5.50;;;;;;;;;;4590148;31;20439;-77
2024/04/02 07:00:29;;;;;;;6.75;6.10;;;;;;;;;;4614536;31;20506;-77
2024/04/02 07:02:55;;;;;;;8.67;6.20;;;;;;;;;;4584521;31;20233;-77
2024/04/02 07:05:21;;;;;;;7.45;5.70;;;;;;;;;;4560222;31;20521;-78
2024/04/02 07:07:47;;;;;;;9.57;6.00;;;;;;;;;;4582029;31;20305;-77
2024/04/02 07:10:13;;;;;;;9.10;6.70;;;;;;;;;;4587249;31;20444;-78
2024/04/02 07:12:39;;;;;;;6.47;5.63;;;;;;;;;;4554629;31;20501;-78
2024/04/02 07:15:06;;;;;;;5.45;5.05;;;;;;;;;;4541868;31;20462;-77
2024/04/02 07:17:31;;;;;;;13.38;6.35;;;;;;;;;;4537617;31;20281;-78
2024/04/02 07:19:58;;;;;;;5.97;5.47;;;;;;;;;;4559371;31;20212;-78
2024/04/02 07:22:24;;;;;;;7.80;5.00;;;;;;;;;;4559234;31;20482;-78
2024/04/02 07:24:50;;;;;;;6.00;5.40;;;;;;;;;;4570549;31;20726;-77
2024/04/02 07:27:16;;;;;;;7.70;5.77;;;;;;;;;;4563492;31;20525;-78
2024/04/02 07:29:42;;;;;;;7.60;5.50;;;;;;;;;;4586850;31;20431;-78
2024/04/02 07:32:08;;;;;;;5.05;4.75;;;;;;;;;;4598910;31;20506;-78
2024/04/02 07:34:34;;;;;;;7.70;5.45;;;;;;;;;;4580553;31;20274;-78
2024/04/02 07:37:00;;;;;;;7.83;5.50;;;;;;;;;;4550056;31;20243;-78
2024/04/02 07:39:26;;;;;;;4.97;4.60;;;;;;;;;;4505893;31;20963;-78
2024/04/02 07:41:52;;;;;;;5.70;4.67;;;;;;;;;;4510871;31;20529;-78
2024/04/02 07:44:18;;;;;;;10.53;5.10;;;;;;;;;;4522157;31;20530;-78
2024/04/02 07:46:44;;;;;;;6.33;5.57;;;;;;;;;;4526597;31;20439;-78
2024/04/02 07:49:10;;;;;;;6.73;5.27;;;;;;;;;;4524638;31;20522;-79
2024/04/02 07:51:35;;;;;;;9.87;5.47;;;;;;;;;;4510703;31;21026;-79
2024/04/02 07:54:01;;;;;;;7.50;5.33;;;;;;;;;;4488353;31;20480;-78
2024/04/02 07:56:27;;;;;;;11.70;5.57;;;;;;;;;;4536936;31;20438;-78
2024/04/02 07:58:53;;;;;;;6.00;5.07;;;;;;;;;;4549283;31;20433;-80
2024/04/02 08:01:19;;;;;;;6.90;4.63;;;;;;;;;;4566108;31;20436;-79
2024/04/02 08:03:45;;;;;;;9.53;5.53;;;;;;;;;;4581265;31;20814;-77
2024/04/02 08:06:11;;;;;;;7.33;5.23;;;;;;;;;;4541098;31;20441;-78
2024/04/02 08:08:37;;;;;;;10.03;5.00;;;;;;;;;;4495011;31;20498;-80
2024/04/02 08:11:03;;;;;;;8.60;5.30;;;;;;;;;;4517417;31;20494;-78
2024/04/02 08:13:29;;;;;;;6.45;4.30;;;;;;;;;;4510226;31;20581;-80
2024/04/02 08:15:55;;;;;;;8.03;5.80;;;;;;;;;;4533008;31;20311;-79
2024/04/02 08:18:23;;;;;;;5.33;4.57;;;;;;;;;;4511027;31;20432;-80
2024/04/02 08:20:49;;;;;;;7.03;5.13;;;;;;;;;;4481771;31;20434;-80
2024/04/02 08:23:15;;;;;;;6.10;4.50;;;;;;;;;;4500807;31;20344;-80
2024/04/02 08:25:41;;;;;;;8.07;5.80;;;;;;;;;;4477835;31;20441;-79
2024/04/02 08:28:07;;;;;;;5.80;5.20;;;;;;;;;;4465604;31;20456;-89
2024/04/02 08:30:33;;;;;;;7.43;5.18;;;;;;;;;;4457662;32;20204;-77
2024/04/02 08:32:59;;;;;;;8.03;4.80;;;;;;;;;;4484845;31;20721;-82
2024/04/02 08:35:25;;;;;;;5.17;4.67;;;;;;;;;;4484563;31;20440;-81
2024/04/02 08:37:51;;;;;;;6.57;4.10;;;;;;;;;;4477362;31;20466;-79
2024/04/02 08:40:17;;;;;;;6.90;5.50;;;;;;;;;;4473435;32;20442;-77
2024/04/02 08:42:43;;;;;;;6.00;4.33;;;;;;;;;;4488974;31;20916;-78
2024/04/02 08:45:10;;;;;;;5.70;5.20;;;;;;;;;;4493376;31;20448;-78
2024/04/02 08:47:37;;;;;;;7.47;4.80;;;;;;;;;;4477551;31;20208;-79
2024/04/02 08:50:05;;;;;;;5.97;5.17;;;;;;;;;;4461176;32;20638;-79
2024/04/02 08:52:31;;;;;;;4.63;4.23;;;;;;;;;;4445259;32;20499;-79
2024/04/02 08:54:57;;;;;;;8.07;4.83;;;;;;;;;;4444731;32;20503;-80
2024/04/02 08:57:23;;;;;;;4.87;3.70;;;;;;;;;;4491303;31;20971;-81
2024/04/02 08:59:49;;;;;;;6.05;4.05;;;;;;;;;;4556254;31;20528;-79
2024/04/02 09:02:16;;;;;;;5.18;3.65;;;;;;;;;;4568210;31;20239;-78
2024/04/02 09:04:41;;;;;;;5.03;4.55;;;;;;;;;;4556053;31;20204;-78
2024/04/02 09:07:07;;;;;;;4.77;4.33;;;;;;;;;;4584136;31;20211;-78
2024/04/02 09:09:35;;;;;;;4.93;4.60;;;;;;;;;;4582740;31;20442;-78
2024/04/02 09:12:03;;;;;;;4.60;4.20;;;;;;;;;;4559079;31;20592;-78
2024/04/02 09:14:33;;;;;;;5.13;4.73;;;;;;;;;;4565197;31;20827;-79
2024/04/02 09:16:59;;;;;;;3.97;3.67;;;;;;;;;;4553359;31;20528;-79
2024/04/02 09:19:26;;;;;;;4.47;4.17;;;;;;;;;;4554887;31;20375;-79
2024/04/02 09:21:52;;;;;;;4.87;4.00;;;;;;;;;;4550462;31;20488;-78
2024/04/02 09:24:18;;;;;;;3.47;3.38;;;;;;;;;;4570987;31;20500;-78
2024/04/02 09:26:44;;;;;;;3.87;3.57;;;;;;;;;;4617071;31;20214;-78
2024/04/02 09:29:10;;;;;;;5.73;4.13;;;;;;;;;;4603702;30;21006;-80
2024/04/02 09:31:36;;;;;;;4.97;4.30;;;;;;;;;;4583814;31;20505;-79
2024/04/02 09:34:05;;;;;;;4.30;4.10;;;;;;;;;;4619768;30;20438;-78
2024/04/02 09:36:34;;;;;;;4.50;4.20;;;;;;;;;;4619788;30;20502;-78
2024/04/02 09:39:04;;;;;;;4.97;4.53;;;;;;;;;;4632138;30;20468;-78
2024/04/02 09:41:31;;;;;;;4.30;3.90;;;;;;;;;;4617911;31;20433;-78
2024/04/02 09:43:58;;;;;;;4.00;3.80;;;;;;;;;;4616041;31;20469;-78
2024/04/02 09:46:24;;;;;;;4.10;3.80;;;;;;;;;;4614712;30;20445;-78
2024/04/02 09:48:52;;;;;;;4.20;3.90;;;;;;;;;;4616552;30;20944;-78
2024/04/02 09:51:19;;;;;;;3.40;3.20;;;;;;;;;;4617659;31;20564;-78
2024/04/02 09:53:45;;;;;;;3.30;3.00;;;;;;;;;;4604734;30;20445;-78
2024/04/02 09:56:11;;;;;;;3.83;3.50;;;;;;;;;;4599961;31;20814;-79
2024/04/02 09:58:38;;;;;;;4.00;3.67;;;;;;;;;;4545115;31;21012;-79
2024/04/02 10:01:04;;;;;;;3.83;3.50;;;;;;;;;;4575751;31;20462;-80
2024/04/02 10:03:31;;;;;;;4.10;3.80;;;;;;;;;;4582083;31;20455;-79
2024/04/02 10:06:04;;;;;;;3.90;3.70;;;;;;;;;;4581809;31;20969;-78
2024/04/02 10:08:30;;;;;;;4.33;3.90;;;;;;;;;;4583069;31;20884;-79
2024/04/02 10:10:56;;;;;;;5.67;4.00;;;;;;;;;;4568044;31;20503;-78
2024/04/02 10:13:34;;;;;;;4.83;4.53;;;;;;;;;;4555004;31;20438;-80
2024/04/02 10:16:00;;;;;;;5.80;5.20;;;;;;;;;;4549968;31;20879;-80
2024/04/02 10:18:26;;;;;;;4.47;4.17;;;;;;;;;;4540703;31;20945;-80
2024/04/02 10:20:56;;;;;;;5.03;4.17;;;;;;;;;;4538819;31;20466;-78
2024/04/02 10:23:23;;;;;;;4.30;3.90;;;;;;;;;;4525814;31;20490;-78
2024/04/02 10:25:49;;;;;;;4.10;3.80;;;;;;;;;;4528274;31;20442;-79
2024/04/02 10:28:23;;;;;;;4.73;4.43;;;;;;;;;;4544714;31;21171;-79
2024/04/02 10:30:49;;;;;;;4.80;4.50;;;;;;;;;;4521501;31;20535;-80
2024/04/02 10:33:21;;;;;;;4.50;4.10;;;;;;;;;;4538280;31;20469;-80
2024/04/02 10:35:48;;;;;;;4.17;3.87;;;;;;;;;;4553421;31;20455;-79
2024/04/02 10:38:14;;;;;;;4.80;4.40;;;;;;;;;;4534896;31;20906;-79
2024/04/02 10:40:40;;;;;;;4.50;4.27;;;;;;;;;;4507253;31;20484;-80
2024/04/02 10:43:06;;;;;;;4.93;4.50;;;;;;;;;;4521878;31;20970;-79
2024/04/02 10:45:32;;;;;;;4.00;3.70;;;;;;;;;;4517850;31;20446;-79
2024/04/02 10:47:58;;;;;;;4.53;4.23;;;;;;;;;;4487058;31;20453;-80
2024/04/02 10:50:25;;;;;;;4.90;4.00;;;;;;;;;;4505277;31;20644;-80
2024/04/02 10:52:51;;;;;;;6.20;4.47;;;;;;;;;;4560488;31;20495;-79
2024/04/02 10:55:17;;;;;;;4.50;4.20;;;;;;;;;;4598972;31;20474;-79
2024/04/02 10:57:43;;;;;;;7.00;3.97;;;;;;;;;;4593940;31;20439;-79
2024/04/02 11:00:18;;;;;;;6.80;4.20;;;;;;;;;;4580990;31;20860;-80
2024/04/02 11:02:45;;;;;;;5.80;4.90;;;;;;;;;;4572795;31;20488;-80
2024/04/02 11:05:14;;;;;;;7.63;4.60;;;;;;;;;;4556538;31;20505;-79
2024/04/02 11:07:44;;;;;;;5.10;4.57;;;;;;;;;;4562258;31;20519;-79
2024/04/02 11:10:11;;;;;;;4.70;4.40;;;;;;;;;;4552778;31;20442;-78
2024/04/02 11:12:36;;;;;;;7.57;4.67;;;;;;;;;;4549907;31;20485;-79
2024/04/02 11:15:03;;;;;;;6.23;5.20;;;;;;;;;;4554834;31;20957;-78
2024/04/02 11:17:29;;;;;;;5.27;4.40;;;;;;;;;;4569255;31;20958;-79
2024/04/02 11:19:56;;;;;;;4.50;4.30;;;;;;;;;;4579069;31;20509;-78
2024/04/02 11:25:11;;;;;;;4.50;4.30;;;;;;;;;;4548613;31;20484;-78
2024/04/02 11:27:37;;;;;;;5.07;4.67;;;;;;;;;;4563692;31;21021;-80
2024/04/02 11:30:03;;;;;;;6.00;5.60;;;;;;;;;;4546934;31;20438;-81
2024/04/02 11:32:29;;;;;;;5.70;5.40;;;;;;;;;;4545230;31;20245;-81
2024/04/02 11:35:02;;;;;;;7.75;7.30;;;;;;;;;;4586725;31;20373;-80
2024/04/02 11:37:29;;;;;;;7.63;6.88;;;;;;;;;;4591840;31;20608;-80
2024/04/02 11:39:55;;;;;;;7.05;6.45;;;;;;;;;;4614616;31;20548;-79
2024/04/02 11:42:22;;;;;;;6.40;5.90;;;;;;;;;;4593698;31;20214;-80
2024/04/02 11:44:48;;;;;;;7.05;6.45;;;;;;;;;;4575968;31;20477;-80
2024/04/02 11:47:14;;;;;;;6.40;5.80;;;;;;;;;;4582503;31;20310;-80
2024/04/02 11:49:41;;;;;;;6.00;5.60;;;;;;;;;;4613280;31;20205;-80
2024/04/02 11:52:07;;;;;;;6.15;5.28;;;;;;;;;;4596475;31;20234;-80
2024/04/02 11:54:33;;;;;;;5.50;4.90;;;;;;;;;;4614547;31;20678;-79
2024/04/02 12:02:28;;;;;;;5.80;5.40;;;;;;;;;;4582712;31;20235;-79
2024/04/02 12:04:54;;;;;;;6.10;5.80;;;;;;;;;;4618249;30;20218;-80
2024/04/02 12:07:21;;;;;;;5.70;5.30;;;;;;;;;;4631614;31;20276;-79
2024/04/02 12:09:54;;;;;;;5.93;5.40;;;;;;;;;;4581810;31;20596;-80
2024/04/02 12:12:20;;;;;;;6.03;5.60;;;;;;;;;;4591100;31;20294;-79
2024/04/02 12:14:46;;;;;;;7.28;6.53;;;;;;;;;;4631306;31;20437;-79
2024/04/02 12:17:12;;;;;;;8.00;7.47;;;;;;;;;;4629779;31;20205;-79
2024/04/02 12:19:38;;;;;;;8.53;7.93;;;;;;;;;;4624138;31;20687;-80
2024/04/02 12:22:04;;;;;;;8.53;7.93;;;;;;;;;;4605315;31;20525;-81
2024/04/02 12:24:30;;;;;;;8.85;8.43;;;;;;;;;;4641540;30;20507;-81
2024/04/02 12:26:56;;;;;;;8.00;7.40;;;;;;;;;;4687702;30;20218;-82
2024/04/02 12:29:21;;;;;;;8.43;7.77;;;;;;;;;;4681534;30;20561;-81
2024/04/02 12:31:47;;;;;;;8.87;8.37;;;;;;;;;;4664823;30;20573;-82
2024/04/02 12:34:18;;;;;;;8.77;8.00;;;;;;;;;;4664361;30;20442;-80
2024/04/02 12:36:44;;;;;;;7.93;7.30;;;;;;;;;;4682193;30;20457;-79
2024/04/02 12:39:10;;;;;;;7.20;6.10;;;;;;;;;;4667886;30;20232;-79
2024/04/02 12:41:37;;;;;;;6.10;5.50;;;;;;;;;;4641481;30;20475;-80
2024/04/02 12:44:03;;;;;;;6.40;5.77;;;;;;;;;;4605590;31;20241;-80
2024/04/02 12:46:29;;;;;;;8.27;6.70;;;;;;;;;;4576197;31;20436;-80
2024/04/02 12:48:54;;;;;;;10.20;9.50;;;;;;;;;;4583724;31;20792;-82
2024/04/02 12:51:20;;;;;;;9.70;9.10;;;;;;;;;;4573350;31;20500;-81
2024/04/02 12:53:46;;;;;;;11.30;10.47;;;;;;;;;;4601055;31;20430;-83
2024/04/02 12:56:14;;;;;;;11.93;10.90;;;;;;;;;;4595732;31;20527;-83
2024/04/02 12:58:40;;;;;;;12.13;11.20;;;;;;;;;;4603763;31;20438;-84
2024/04/02 13:01:06;;;;;;;11.80;11.00;;;;;;;;;;4587817;31;20230;-83
2024/04/02 13:03:32;;;;;;;13.27;12.10;;;;;;;;;;4554679;31;20491;-83
2024/04/02 13:05:58;;;;;;;13.05;11.80;;;;;;;;;;4580926;31;20432;-82
2024/04/02 13:08:25;;;;;;;11.95;11.25;;;;;;;;;;4609485;31;20205;-82
2024/04/02 13:10:51;;;;;;;11.30;10.45;;;;;;;;;;4629732;31;20308;-81
2024/04/02 13:13:18;;;;;;;11.00;10.20;;;;;;;;;;4658032;30;20199;-81
2024/04/02 13:15:44;;;;;;;10.57;9.73;;;;;;;;;;4642727;30;20259;-81
2024/04/02 13:18:11;;;;;;;12.70;10.98;;;;;;;;;;4635643;30;20283;-81
2024/04/02 13:20:37;;;;;;;12.10;10.15;;;;;;;;;;4621860;30;20198;-80
2024/04/02 13:23:05;;;;;;;9.50;8.60;;;;;;;;;;4609793;31;20370;-80
2024/04/02 13:25:31;;;;;;;9.48;8.52;;;;;;;;;;4563108;31;20212;-83
2024/04/02 13:27:57;;;;;;;10.23;8.97;;;;;;;;;;4585054;31;20207;-82
2024/04/02 13:30:26;;;;;;;9.40;8.70;;;;;;;;;;4595728;31;20986;-82
2024/04/02 13:32:52;;;;;;;10.73;8.70;;;;;;;;;;4612671;31;21039;-85
2024/04/02 13:35:19;;;;;;;8.40;7.75;;;;;;;;;;4617760;30;20220;-81
2024/04/02 13:37:46;;;;;;;10.45;7.63;;;;;;;;;;4601166;31;20262;-81
2024/04/02 13:40:12;;;;;;;7.22;6.70;;;;;;;;;;4589286;31;20206;-82
2024/04/02 13:42:38;;;;;;;7.20;6.50;;;;;;;;;;4624519;31;20249;-81
2024/04/02 13:45:05;;;;;;;8.02;6.55;;;;;;;;;;4573754;31;20199;-81
2024/04/02 13:47:32;;;;;;;6.43;5.78;;;;;;;;;;4629429;31;20193;-82
2024/04/02 13:49:59;;;;;;;6.03;5.45;;;;;;;;;;4633313;30;20667;-81
2024/04/02 13:52:25;;;;;;;6.93;6.25;;;;;;;;;;4636768;30;20319;-84
2024/04/02 13:54:51;;;;;;;7.00;5.60;;;;;;;;;;4579013;31;20298;-81
2024/04/02 13:57:17;;;;;;;6.10;5.60;;;;;;;;;;4616238;31;20460;-81
2024/04/02 13:59:43;;;;;;;8.50;5.60;;;;;;;;;;4590378;31;20467;-81
2024/04/02 14:02:09;;;;;;;6.78;5.40;;;;;;;;;;4618717;30;20438;-81
2024/04/02 14:04:41;;;;;;;6.40;5.77;;;;;;;;;;4651583;30;20200;-81
2024/04/02 14:07:07;;;;;;;6.60;5.20;;;;;;;;;;4632936;31;20428;-79
2024/04/02 14:09:33;;;;;;;5.37;4.90;;;;;;;;;;4605957;31;20270;-78
2024/04/02 14:11:59;;;;;;;6.10;5.30;;;;;;;;;;4650348;30;20578;-79
2024/04/02 14:14:25;;;;;;;12.73;5.03;;;;;;;;;;4620072;31;20857;-78
2024/04/02 14:16:51;;;;;;;6.13;5.00;;;;;;;;;;4587534;31;20437;-80
2024/04/02 14:19:17;;;;;;;5.90;5.50;;;;;;;;;;4650265;30;20432;-79
2024/04/02 14:21:42;;;;;;;6.63;6.00;;;;;;;;;;4607332;30;20481;-77
2024/04/02 14:24:08;;;;;;;7.37;5.20;;;;;;;;;;4601732;31;20510;-77
2024/04/02 14:26:34;;;;;;;8.47;5.23;;;;;;;;;;4584130;31;20842;-77
2024/04/02 14:29:00;;;;;;;6.40;4.87;;;;;;;;;;4595203;31;20543;-77
2024/04/02 14:31:28;;;;;;;5.53;4.80;;;;;;;;;;4569225;31;20501;-77
2024/04/02 14:33:54;;;;;;;11.80;5.13;;;;;;;;;;4586503;31;20452;-77
2024/04/02 14:36:20;;;;;;;10.77;4.57;;;;;;;;;;4603412;31;20213;-78
2024/04/02 14:38:47;;;;;;;5.88;3.80;;;;;;;;;;4574048;31;20204;-78
2024/04/02 14:41:15;;;;;;;8.70;4.87;;;;;;;;;;4571068;31;20206;-78
2024/04/02 14:43:42;;;;;;;9.07;3.97;;;;;;;;;;4624281;31;20433;-77